createdAt,value
2022-11-29T00:07:56.044Z,36.43
2022-11-29T00:17:57.573Z,37.78
2022-11-29T00:27:59.098Z,37.13
2022-11-29T00:38:00.617Z,35.83
2022-11-29T00:48:02.116Z,38.03
2022-11-29T00:58:03.638Z,37.20
2022-11-29T01:08:05.351Z,36.78
2022-11-29T01:18:06.856Z,38.33
2022-11-29T01:28:08.361Z,39.20
2022-11-29T01:38:09.878Z,40.67
2022-11-29T01:48:13.668Z,41.07
2022-11-29T01:58:15.442Z,41.97
2022-11-29T02:08:29.649Z,39.70
2022-11-29T02:19:11.974Z,40.97
2022-11-29T02:29:31.972Z,39.45
2022-11-29T02:39:48.835Z,40.57
2022-11-29T02:49:59.371Z,39.00
2022-11-29T03:00:14.240Z,39.03
2022-11-29T03:10:52.136Z,39.67
2022-11-29T03:21:22.865Z,39.05
2022-11-29T03:31:34.918Z,39.97
2022-11-29T03:42:02.328Z,39.03
2022-11-29T03:52:24.681Z,41.70
2022-11-29T04:03:09.587Z,41.33
2022-11-29T04:13:35.277Z,41.67
2022-11-29T04:23:58.641Z,40.80
2022-11-29T04:34:03.063Z,43.57
2022-11-29T04:44:27.387Z,43.30
2022-11-29T04:54:42.509Z,42.53
2022-11-29T05:05:04.577Z,41.07
2022-11-29T05:15:34.496Z,40.70
2022-11-29T05:26:05.065Z,42.90
2022-11-29T05:36:28.344Z,43.28
2022-11-29T05:47:07.586Z,47.33
2022-11-29T05:57:14.913Z,51.20
2022-11-29T06:07:26.014Z,44.72
2022-11-29T06:17:52.255Z,40.50
2022-11-29T06:28:08.688Z,42.37
2022-11-29T06:38:20.805Z,42.30
2022-11-29T06:48:25.730Z,41.73
2022-11-29T06:58:31.447Z,35.57
2022-11-29T07:08:36.504Z,28.80
2022-11-29T07:18:57.108Z,34.10
2022-11-29T07:29:27.840Z,27.10
2022-11-29T07:40:05.793Z,27.90
2022-11-29T07:50:13.650Z,25.07
2022-11-29T08:00:18.801Z,23.55
2022-11-29T08:10:20.325Z,25.43
2022-11-29T08:20:21.907Z,24.87
2022-11-29T08:30:24.012Z,23.23
2022-11-29T08:40:25.686Z,25.53
2022-11-29T08:50:27.242Z,24.95
2022-11-29T09:00:28.797Z,27.57
2022-11-29T09:10:30.329Z,31.30
2022-11-29T09:20:33.329Z,34.88
2022-11-29T09:30:34.901Z,33.20
2022-11-29T09:40:50.868Z,30.93
2022-11-29T09:51:02.141Z,33.37
2022-11-29T10:01:09.207Z,33.10
2022-11-29T10:11:43.651Z,33.20
2022-11-29T10:21:54.212Z,30.50
2022-11-29T10:31:55.830Z,34.43
2022-11-29T10:42:02.064Z,31.90
2022-11-29T10:52:03.585Z,31.57
2022-11-29T11:02:17.564Z,29.97
2022-11-29T11:12:22.851Z,28.15
2022-11-29T11:22:26.315Z,27.47
2022-11-29T11:32:28.262Z,27.47
2022-11-29T11:42:38.527Z,31.37
2022-11-29T11:52:42.013Z,30.17
2022-11-29T12:02:46.528Z,26.20
2022-11-29T12:12:50.556Z,23.07
2022-11-29T12:23:06.980Z,24.30
2022-11-29T12:33:39.348Z,24.80
2022-11-29T12:43:59.642Z,24.97
2022-11-29T12:54:19.965Z,23.05
2022-11-29T13:04:59.892Z,23.20
2022-11-29T13:15:20.725Z,22.33
2022-11-29T13:25:29.044Z,23.48
2022-11-29T13:35:41.708Z,24.37
2022-11-29T13:46:21.953Z,23.93
2022-11-29T13:56:41.411Z,23.67
2022-11-29T14:06:43.029Z,21.70
2022-11-29T14:16:49.120Z,22.67
2022-11-29T14:26:50.890Z,21.67
2022-11-29T14:37:07.295Z,22.80
2022-11-29T14:47:26.713Z,25.55
2022-11-29T14:57:47.112Z,24.57
2022-11-29T15:08:03.608Z,24.33
2022-11-29T15:18:26.860Z,25.07
2022-11-29T15:28:29.973Z,22.90
2022-11-29T15:38:42.210Z,24.73
2022-11-29T15:48:43.756Z,23.70
2022-11-29T15:58:47.611Z,25.07
2022-11-29T16:08:50.713Z,25.03
2022-11-29T16:18:52.204Z,26.40
2022-11-29T16:28:55.076Z,26.73
2022-11-29T16:39:14.124Z,24.97
2022-11-29T16:49:45.372Z,25.33
2022-11-29T16:59:46.980Z,26.27
2022-11-29T17:09:48.488Z,27.27
2022-11-29T17:19:50.019Z,27.73
2022-11-29T17:29:51.501Z,27.83
2022-11-29T17:39:52.988Z,26.57
2022-11-29T17:49:54.451Z,25.83
2022-11-29T17:59:55.929Z,25.90
2022-11-29T18:09:57.433Z,27.87
2022-11-29T18:19:58.936Z,27.75
2022-11-29T18:30:00.474Z,27.17
2022-11-29T18:40:01.952Z,27.27
2022-11-29T18:50:03.793Z,26.10
2022-11-29T19:00:06.035Z,28.20
2022-11-29T19:10:08.012Z,26.55
2022-11-29T19:20:10.409Z,24.27
2022-11-29T19:30:12.695Z,22.00
2022-11-29T19:40:14.290Z,22.67
2022-11-29T19:50:15.822Z,25.23
2022-11-29T20:00:18.076Z,25.83
2022-11-29T20:10:19.595Z,25.00
2022-11-29T20:20:21.134Z,24.90
2022-11-29T20:30:22.889Z,24.07
2022-11-29T20:40:32.349Z,25.23
2022-11-29T20:50:34.127Z,25.63
2022-11-29T21:00:35.605Z,24.13
2022-11-29T21:10:37.166Z,21.30
2022-11-29T21:20:38.877Z,24.55
2022-11-29T21:30:41.160Z,24.90
2022-11-29T21:40:42.646Z,26.10
2022-11-29T21:50:49.570Z,25.80
2022-11-29T22:00:51.449Z,25.43
2022-11-29T22:11:03.352Z,30.13
2022-11-29T22:21:07.649Z,31.73
2022-11-29T22:31:10.797Z,28.30
2022-11-29T22:41:13.833Z,28.42
2022-11-29T22:51:21.180Z,29.47
2022-11-29T23:01:28.169Z,31.20
2022-11-29T23:11:30.443Z,28.95
2022-11-29T23:21:34.625Z,30.87
2022-11-29T23:31:36.524Z,29.70
2022-11-29T23:41:38.194Z,28.07
2022-11-29T23:51:39.670Z,28.07
